Pulpca — PHMT — position and weather

sailwx.info

Track history (hours):
 
Tides and Currents Weather Stations Pressure Air Temp Water Temp Dewpoint Dewpoint Depression Visibility Wind Speed Wind Dir Waves Ship Positions

Pulpca

Last reported at 2017-Apr-24 23:02 UTC. Time now 2017-Apr-25 04:43 UTC.
Position N 60°27' E 019°04'.

Length 205 m; draft 7.2 m.

Type: Ship (hazmat cat A). MMSI: 245097000.

Date/timePositionNaut miles runAvg speedWind from/ knotsBaromVisibWave heightAir tempDewpointWater temp
2017-Apr-24 23:02N 60°27' E 019°04'119.5
2017-Apr-24 22:59N 60°26' E 019°03'1020.5
2017-Apr-24 22:30N 60°17' E 019°01'1020.3
2017-Apr-24 22:00N 60°08' E 019°12'1121.7
2017-Apr-24 21:30N 59°59' E 019°25'1122.3
2017-Apr-24 21:00N 59°50' E 019°39'5120.5
2017-Apr-24 18:30N 59°33' E 021°15'1121.8
2017-Apr-24 18:00N 59°32' E 021°36'1121.5
2017-Apr-24 17:29N 59°32' E 021°59'2921.7
2017-Apr-24 16:10N 59°39' E 022°53'321.2
2017-Apr-24 16:00N 59°40' E 022°60'816.0
2017-Apr-24 15:30N 59°48' E 022°57'1 0.1
2017-Apr-24 08:22N 59°49' E 022°56'718.2
2017-Apr-24 08:01N 59°44' E 023°05'34420.8
2017-Apr-23 15:28N 55°39' E 015°32'1021.1
2017-Apr-23 15:00N 55°35' E 015°16'2221.4
2017-Apr-23 14:00N 55°25' E 014°42'1020.4
2017-Apr-23 13:30N 55°18' E 014°30'1020.7
2017-Apr-23 13:00N 55°09' E 014°19'1121.0
2017-Apr-23 12:30N 55°11' E 014°00'1121.0
2017-Apr-23 12:00N 55°12' E 013°42'2321.6
2017-Apr-23 10:57N 55°14' E 013°02'920.6
2017-Apr-23 10:30N 55°16' E 012°47'815.4
2017-Apr-23 10:00N 55°23' E 012°39'917.8
2017-Apr-23 09:31N 55°31' E 012°42'5 9.6
2017-Apr-23 09:00N 55°36' E 012°42'612.1
2017-Apr-23 08:31N 55°42' E 012°41'918.1
2017-Apr-23 08:01N 55°51' E 012°45'1020.9
2017-Apr-23 07:31N 56°01' E 012°40'1019.7
2017-Apr-23 07:01N 56°09' E 012°30'5621.6
2017-Apr-23 04:26N 56°59' E 011°44'922.1
2017-Apr-23 04:01N 57°07' E 011°38'1122.0
2017-Apr-23 03:31N 57°18' E 011°31'1121.8
2017-Apr-23 03:00N 57°28' E 011°23'1121.8
2017-Apr-23 02:31N 57°35' E 011°08'1121.8
2017-Apr-23 02:00N 57°43' E 010°53'1020.8
2017-Apr-23 01:30N 57°47' E 010°36'1121.8
2017-Apr-23 01:01N 57°45' E 010°16'17119.0
2017-Apr-22 16:00N 55°40' E 006°42'1019.1
2017-Apr-22 15:30N 55°32' E 006°33'1019.0
2017-Apr-22 15:00N 55°24' E 006°23'1018.9
2017-Apr-22 14:29N 55°16' E 006°14'1918.6
2017-Apr-22 13:29N 55°01' E 005°56'918.7
2017-Apr-22 12:59N 54°53' E 005°46'1018.9
2017-Apr-22 12:29N 54°45' E 005°38'918.4
2017-Apr-22 12:00N 54°37' E 005°31'918.4
2017-Apr-22 11:30N 54°29' E 005°24'918.7
2017-Apr-22 11:00N 54°20' E 005°17'918.6
2017-Apr-22 10:30N 54°12' E 005°11'918.7
2017-Apr-22 09:59N 54°03' E 005°05'918.4
2017-Apr-22 09:29N 53°54' E 005°01'1018.8
2017-Apr-22 08:58N 53°45' E 004°55'918.6
2017-Apr-22 08:30N 53°37' E 004°50'918.3
2017-Apr-22 08:00N 53°28' E 004°44'816.5
2017-Apr-22 07:30N 53°21' E 004°38'918.3
2017-Apr-22 06:59N 53°12' E 004°32'918.6
2017-Apr-22 06:29N 53°04' E 004°24'918.9
2017-Apr-22 06:00N 52°56' E 004°17'918.8
2017-Apr-22 05:30N 52°48' E 004°09'1019.1
2017-Apr-22 05:00N 52°41' E 003°59'1019.2
2017-Apr-22 04:30N 52°34' E 003°48'1019.3
2017-Apr-22 04:00N 52°26' E 003°38'1019.5
2017-Apr-22 03:30N 52°18' E 003°28'1020.3
2017-Apr-22 03:00N 52°08' E 003°26'1020.6
2017-Apr-22 02:29N 51°58' E 003°23'1020.1
2017-Apr-22 02:00N 51°49' E 003°17'1020.6
2017-Apr-22 01:30N 51°39' E 003°11'1020.3
2017-Apr-22 01:00N 51°30' E 003°04'612.6
2017-Apr-22 00:30N 51°24' E 003°06'1020.5
2017-Apr-22 00:00N 51°25' E 003°23'918.0
2017-Apr-21 23:30N 51°26' E 003°37'611.6
2017-Apr-21 23:00N 51°22' E 003°44'815.4
2017-Apr-21 22:30N 51°23' E 003°56'4 8.0
2017-Apr-21 22:00N 51°23' E 004°03'713.1
2017-Apr-21 21:31N 51°22' E 004°13'611.0
2017-Apr-21 21:00N 51°18' E 004°18'2 4.2
2017-Apr-21 20:30N 51°16' E 004°17'0 0.0
2017-Apr-21 20:00N 51°16' E 004°17'2 3.5
2017-Apr-21 19:31N 51°15' E 004°14'0 0.0
2017-Apr-21 19:00N 51°15' E 004°14'0 0.0
2017-Apr-21 18:30N 51°15' E 004°14'0 0.0
2017-Apr-21 18:00N 51°15' E 004°14'0 0.0
2017-Apr-21 17:27N 51°15' E 004°14'0 0.0
2017-Apr-21 16:57N 51°15' E 004°14'0 0.0
2017-Apr-21 16:30N 51°15' E 004°14'0 0.0
2017-Apr-21 16:00N 51°15' E 004°14'0 0.0
2017-Apr-21 15:30N 51°15' E 004°14'0 0.0
2017-Apr-21 14:51N 51°15' E 004°14'0 0.0
2017-Apr-21 14:30N 51°15' E 004°14'0 0.0
2017-Apr-21 13:30N 51°15' E 004°14'0 0.0
2017-Apr-21 13:00N 51°15' E 004°14'0 0.0
2017-Apr-21 12:30N 51°15' E 004°14'0 0.0
2017-Apr-21 12:00N 51°15' E 004°14'0 0.0
2017-Apr-21 11:30N 51°15' E 004°14'0 0.0
2017-Apr-21 11:00N 51°15' E 004°14'0 0.0
2017-Apr-21 10:27N 51°15' E 004°14'0 0.0
2017-Apr-21 10:00N 51°15' E 004°14'0 0.0
2017-Apr-21 09:30N 51°15' E 004°14'0 0.0
2017-Apr-21 09:00N 51°15' E 004°14'0 0.0
2017-Apr-21 08:27N 51°15' E 004°14'0 0.0
2017-Apr-21 07:45N 51°15' E 004°14'0 0.0
2017-Apr-21 07:30N 51°15' E 004°14'0 0.0
2017-Apr-21 06:54N 51°15' E 004°14'0 0.0
2017-Apr-21 06:27N 51°15' E 004°14'0 0.0
2017-Apr-21 06:00N 51°15' E 004°14'0 0.0
2017-Apr-21 05:24N 51°15' E 004°14'0 0.0
2017-Apr-21 05:00N 51°15' E 004°14'0 0.0
2017-Apr-21 04:30N 51°15' E 004°14'0 0.0
2017-Apr-21 03:54N 51°15' E 004°14'0 0.0
2017-Apr-21 03:30N 51°15' E 004°14'0 0.0
2017-Apr-21 03:00N 51°15' E 004°14'0 0.0
2017-Apr-21 02:30N 51°15' E 004°14'0 0.0
2017-Apr-21 02:00N 51°15' E 004°14'0 0.0
2017-Apr-21 01:30N 51°15' E 004°14'0 0.0
2017-Apr-21 01:00N 51°15' E 004°14'0 0.0
2017-Apr-21 00:30N 51°15' E 004°14'0 0.0
2017-Apr-20 23:57N 51°15' E 004°14'0 0.0
2017-Apr-20 23:27N 51°15' E 004°14'0 0.0
2017-Apr-20 22:57N 51°15' E 004°14'0 0.0
2017-Apr-20 22:27N 51°15' E 004°14'0 0.0
2017-Apr-20 22:00N 51°15' E 004°14'0 0.0
2017-Apr-20 21:30N 51°15' E 004°14'0 0.0
2017-Apr-20 21:00N 51°15' E 004°14'0 0.0
2017-Apr-20 20:30N 51°15' E 004°14'0 0.0
2017-Apr-20 20:00N 51°15' E 004°14'0 0.0
2017-Apr-20 19:27N 51°15' E 004°14'0 0.0
2017-Apr-20 18:57N 51°15' E 004°14'0 0.0
2017-Apr-20 18:30N 51°15' E 004°14'0 0.0
2017-Apr-20 18:00N 51°15' E 004°14'0 0.0
2017-Apr-20 17:30N 51°15' E 004°14'0 0.0
2017-Apr-20 17:00N 51°15' E 004°14'0 0.0
2017-Apr-20 16:24N 51°15' E 004°14'0 0.0
2017-Apr-20 16:00N 51°15' E 004°14'0 0.0
2017-Apr-20 15:30N 51°15' E 004°14'0 0.0
2017-Apr-20 14:57N 51°15' E 004°14'0 0.0
2017-Apr-20 14:00N 51°15' E 004°14'0 0.0
2017-Apr-20 13:30N 51°15' E 004°14'0 0.0
2017-Apr-20 13:00N 51°15' E 004°14'0 0.0
2017-Apr-20 12:21N 51°15' E 004°14'0 0.0
2017-Apr-20 12:00N 51°15' E 004°14'0 0.0
2017-Apr-20 11:30N 51°15' E 004°14'0 0.0
2017-Apr-20 11:00N 51°15' E 004°14'0 0.0
2017-Apr-20 10:27N 51°15' E 004°14'0 0.0
2017-Apr-20 10:00N 51°15' E 004°14'0 0.0
2017-Apr-20 09:30N 51°15' E 004°14'0 0.0
2017-Apr-20 08:57N 51°15' E 004°14'0 0.0
2017-Apr-20 08:30N 51°15' E 004°14'0 0.0
2017-Apr-20 08:00N 51°15' E 004°14'0 0.0
2017-Apr-20 07:30N 51°15' E 004°14'0 0.0
2017-Apr-20 07:00N 51°15' E 004°14'0 0.0
2017-Apr-20 06:30N 51°15' E 004°14'0 0.2
2017-Apr-20 06:00N 51°15' E 004°14'0 0.0
2017-Apr-20 05:27N 51°15' E 004°14'0 0.0
2017-Apr-20 05:00N 51°15' E 004°14'0 0.0
2017-Apr-20 04:30N 51°15' E 004°14'0 0.0
2017-Apr-20 03:57N 51°15' E 004°14'0 0.0
2017-Apr-20 03:30N 51°15' E 004°14'0 0.0
2017-Apr-20 03:00N 51°15' E 004°14'0 0.0
2017-Apr-20 02:30N 51°15' E 004°14'0 0.0
2017-Apr-20 02:00N 51°15' E 004°14'0 0.0
2017-Apr-20 01:30N 51°15' E 004°14'0 0.0
2017-Apr-20 01:00N 51°15' E 004°14'0 0.0
2017-Apr-20 00:30N 51°15' E 004°14'0 0.0
2017-Apr-19 23:57N 51°15' E 004°14'0 0.0
2017-Apr-19 23:30N 51°15' E 004°14'0 0.0
2017-Apr-19 22:57N 51°15' E 004°14'0 0.0
2017-Apr-19 22:30N 51°15' E 004°14'0 0.0
2017-Apr-19 21:57N 51°15' E 004°14'0 0.0
2017-Apr-19 21:24N 51°15' E 004°14'0 0.0
2017-Apr-19 20:57N 51°15' E 004°14'0 0.0
2017-Apr-19 20:30N 51°15' E 004°14'0 0.0
2017-Apr-19 19:57N 51°15' E 004°14'0 0.0
2017-Apr-19 19:30N 51°15' E 004°14'0 0.0
2017-Apr-19 19:00N 51°15' E 004°14'0 0.0
2017-Apr-19 18:30N 51°15' E 004°14'0 0.0
2017-Apr-19 18:00N 51°15' E 004°14'0 0.0
2017-Apr-19 17:30N 51°15' E 004°14'0 0.0
2017-Apr-19 16:57N 51°15' E 004°14'0 0.0
2017-Apr-19 16:27N 51°15' E 004°14'0 0.0
2017-Apr-19 15:57N 51°15' E 004°14'0 0.0
2017-Apr-19 15:30N 51°15' E 004°14'0 0.0
2017-Apr-19 15:00N 51°15' E 004°14'0 0.0
2017-Apr-19 14:30N 51°15' E 004°14'0 0.0
2017-Apr-19 13:30N 51°15' E 004°14'0 0.0
2017-Apr-19 13:00N 51°15' E 004°14'0 0.0
2017-Apr-19 12:30N 51°15' E 004°14'0 0.0
2017-Apr-19 11:57N 51°15' E 004°14'0 0.0
2017-Apr-19 11:30N 51°15' E 004°14'0 0.0
2017-Apr-19 11:00N 51°15' E 004°14'0 0.0
2017-Apr-19 10:30N 51°15' E 004°14'0 0.0
2017-Apr-19 10:00N 51°15' E 004°14'0 0.0
2017-Apr-19 09:30N 51°15' E 004°14'0 0.0
2017-Apr-19 09:00N 51°15' E 004°14'0 0.0
2017-Apr-19 08:30N 51°15' E 004°14'0 0.0
2017-Apr-19 07:57N 51°15' E 004°14'0 0.0
2017-Apr-19 07:30N 51°15' E 004°14'0 0.0
2017-Apr-19 06:57N 51°15' E 004°14'0 0.0
2017-Apr-19 06:30N 51°15' E 004°14'0 0.0
2017-Apr-19 06:00N 51°15' E 004°14'0 0.0
2017-Apr-19 05:27N 51°15' E 004°14'0 0.0
2017-Apr-19 04:57N 51°15' E 004°14'0 0.0
2017-Apr-19 04:30N 51°15' E 004°14'0 0.0
2017-Apr-19 04:00N 51°15' E 004°14'0 0.0
2017-Apr-19 03:27N 51°15' E 004°14'0 0.0
2017-Apr-19 03:00N 51°15' E 004°14'0 0.0
2017-Apr-19 02:30N 51°15' E 004°14'0 0.0
2017-Apr-19 02:00N 51°15' E 004°14'0 0.0
2017-Apr-19 01:30N 51°15' E 004°14'0 0.0
2017-Apr-19 01:00N 51°15' E 004°14'0 0.0
2017-Apr-19 00:30N 51°15' E 004°14'0 0.0
2017-Apr-18 23:57N 51°15' E 004°14'0 0.0
2017-Apr-18 23:30N 51°15' E 004°14'0 0.0
2017-Apr-18 23:00N 51°15' E 004°14'0 0.0
2017-Apr-18 22:27N 51°15' E 004°14'0 0.0
2017-Apr-18 22:00N 51°15' E 004°14'0 0.0
2017-Apr-18 21:30N 51°15' E 004°14'0 0.0
2017-Apr-18 21:00N 51°15' E 004°14'0 0.0
2017-Apr-18 20:30N 51°15' E 004°14'0 0.0
2017-Apr-18 20:00N 51°15' E 004°14'0 0.0
2017-Apr-18 19:30N 51°15' E 004°14'0 0.0
2017-Apr-18 19:00N 51°15' E 004°14'0 0.1
2017-Apr-18 18:27N 51°15' E 004°14'0 0.0
2017-Apr-18 18:00N 51°15' E 004°14'0 0.0
2017-Apr-18 17:30N 51°15' E 004°14'0 0.0
2017-Apr-18 16:57N 51°15' E 004°14'0 0.0
2017-Apr-18 16:30N 51°15' E 004°14'0 0.0
2017-Apr-18 16:00N 51°15' E 004°14'0 0.0
2017-Apr-18 15:30N 51°15' E 004°14'0 0.0
2017-Apr-18 15:00N 51°15' E 004°14'0 0.0
2017-Apr-18 14:30N 51°15' E 004°14'0 0.0
2017-Apr-18 13:30N 51°15' E 004°14'0 0.0
2017-Apr-18 13:00N 51°15' E 004°14'0 0.0
2017-Apr-18 12:30N 51°15' E 004°14'0 0.0
2017-Apr-18 12:00N 51°15' E 004°14'0 0.0
2017-Apr-18 11:30N 51°15' E 004°14'0 0.0
2017-Apr-18 11:00N 51°15' E 004°14'0 0.2
2017-Apr-18 10:31N 51°15' E 004°14'2 3.3
2017-Apr-18 10:01N 51°16' E 004°16'0 0.3
2017-Apr-18 09:30N 51°16' E 004°17'1 2.3
2017-Apr-18 09:00N 51°16' E 004°18'3 6.1
2017-Apr-18 08:30N 51°19' E 004°16'611.2
2017-Apr-18 07:59N 51°24' E 004°11'611.1
2017-Apr-18 07:29N 51°25' E 004°02'710.2
2017-Apr-18 06:49N 51°21' E 003°53'413.5
2017-Apr-18 06:30N 51°22' E 003°46'714.1
2017-Apr-18 06:00N 51°26' E 003°38'510.7
2017-Apr-18 05:30N 51°25' E 003°29'815.9
2017-Apr-18 05:00N 51°24' E 003°17'816.6
2017-Apr-18 04:30N 51°24' E 003°03'611.1
2017-Apr-18 04:00N 51°30' E 003°04'815.1
2017-Apr-18 03:30N 51°36' E 003°10'917.2
2017-Apr-18 02:59N 51°45' E 003°13'43518.1
2017-Apr-17 03:01N 57°45' E 010°16'017.8
2017-Apr-17 03:00N 57°45' E 010°17'817.1
2017-Apr-17 02:30N 57°46' E 010°32'917.2
2017-Apr-17 02:00N 57°46' E 010°49'918.3
2017-Apr-17 01:29N 57°40' E 011°02'918.5
2017-Apr-17 01:00N 57°34' E 011°14'918.7
2017-Apr-17 00:30N 57°28' E 011°27'918.5
2017-Apr-17 00:01N 57°19' E 011°32'918.4
2017-Apr-16 23:31N 57°11' E 011°38'11717.2
2017-Apr-16 16:44N 55°15' E 011°05'418.8
2017-Apr-16 16:30N 55°11' E 011°04'1121.1
2017-Apr-16 16:01N 55°01' E 011°02'918.8
2017-Apr-16 15:31N 54°53' E 010°53'918.6
2017-Apr-16 15:00N 54°44' E 010°53'1918.9
2017-Apr-16 14:00N 54°33' E 011°21'1020.1
2017-Apr-16 13:30N 54°29' E 011°36'1020.3
2017-Apr-16 13:01N 54°26' E 011°53'1019.5
2017-Apr-16 12:30N 54°26' E 012°09'815.1
2017-Apr-16 12:00N 54°33' E 012°15'5718.8
2017-Apr-16 08:57N 54°59' E 013°43'920.2
2017-Apr-16 08:30N 55°03' E 013°58'1019.7
2017-Apr-16 08:00N 55°09' E 014°10'1020.6
2017-Apr-16 07:30N 55°17' E 014°22'1020.4
2017-Apr-16 07:01N 55°24' E 014°34'1020.3
2017-Apr-16 06:31N 55°30' E 014°49'1020.2
2017-Apr-16 06:01N 55°35' E 015°05'35019.9
2017-Apr-15 12:24N 59°39' E 022°55'717.3
2017-Apr-15 12:00N 59°44' E 023°04'  
Track history (hours):
 
Tides and Currents Weather Stations Pressure Air Temp Water Temp Dewpoint Dewpoint Depression Visibility Wind Speed Wind Dir Waves Ship Positions

Pulpca

Last reported at 2017-Apr-24 23:02 UTC. Time now 2017-Apr-25 04:43 UTC.
Position N 60°27' E 019°04'.

Length 205 m; draft 7.2 m.

Type: Ship (hazmat cat A). MMSI: 245097000.

Date/timePositionNaut miles runAvg speedWind from/ knotsBaromVisibWave heightAir tempDewpointWater temp
2017-Apr-24 23:02N 60°27' E 019°04'119.5
2017-Apr-24 22:59N 60°26' E 019°03'1020.5
2017-Apr-24 22:30N 60°17' E 019°01'1020.3
2017-Apr-24 22:00N 60°08' E 019°12'1121.7
2017-Apr-24 21:30N 59°59' E 019°25'1122.3
2017-Apr-24 21:00N 59°50' E 019°39'5120.5
2017-Apr-24 18:30N 59°33' E 021°15'1121.8
2017-Apr-24 18:00N 59°32' E 021°36'1121.5
2017-Apr-24 17:29N 59°32' E 021°59'2921.7
2017-Apr-24 16:10N 59°39' E 022°53'321.2
2017-Apr-24 16:00N 59°40' E 022°60'816.0
2017-Apr-24 15:30N 59°48' E 022°57'1 0.1
2017-Apr-24 08:22N 59°49' E 022°56'718.2
2017-Apr-24 08:01N 59°44' E 023°05'34420.8
2017-Apr-23 15:28N 55°39' E 015°32'1021.1
2017-Apr-23 15:00N 55°35' E 015°16'2221.4
2017-Apr-23 14:00N 55°25' E 014°42'1020.4
2017-Apr-23 13:30N 55°18' E 014°30'1020.7
2017-Apr-23 13:00N 55°09' E 014°19'1121.0
2017-Apr-23 12:30N 55°11' E 014°00'1121.0
2017-Apr-23 12:00N 55°12' E 013°42'2321.6
2017-Apr-23 10:57N 55°14' E 013°02'920.6
2017-Apr-23 10:30N 55°16' E 012°47'815.4
2017-Apr-23 10:00N 55°23' E 012°39'917.8
2017-Apr-23 09:31N 55°31' E 012°42'5 9.6
2017-Apr-23 09:00N 55°36' E 012°42'612.1
2017-Apr-23 08:31N 55°42' E 012°41'918.1
2017-Apr-23 08:01N 55°51' E 012°45'1020.9
2017-Apr-23 07:31N 56°01' E 012°40'1019.7
2017-Apr-23 07:01N 56°09' E 012°30'5621.6
2017-Apr-23 04:26N 56°59' E 011°44'922.1
2017-Apr-23 04:01N 57°07' E 011°38'1122.0
2017-Apr-23 03:31N 57°18' E 011°31'1121.8
2017-Apr-23 03:00N 57°28' E 011°23'1121.8
2017-Apr-23 02:31N 57°35' E 011°08'1121.8
2017-Apr-23 02:00N 57°43' E 010°53'1020.8
2017-Apr-23 01:30N 57°47' E 010°36'1121.8
2017-Apr-23 01:01N 57°45' E 010°16'17119.0
2017-Apr-22 16:00N 55°40' E 006°42'1019.1
2017-Apr-22 15:30N 55°32' E 006°33'1019.0
2017-Apr-22 15:00N 55°24' E 006°23'1018.9
2017-Apr-22 14:29N 55°16' E 006°14'1918.6
2017-Apr-22 13:29N 55°01' E 005°56'918.7
2017-Apr-22 12:59N 54°53' E 005°46'1018.9
2017-Apr-22 12:29N 54°45' E 005°38'918.4
2017-Apr-22 12:00N 54°37' E 005°31'918.4
2017-Apr-22 11:30N 54°29' E 005°24'918.7
2017-Apr-22 11:00N 54°20' E 005°17'918.6
2017-Apr-22 10:30N 54°12' E 005°11'918.7
2017-Apr-22 09:59N 54°03' E 005°05'918.4
2017-Apr-22 09:29N 53°54' E 005°01'1018.8
2017-Apr-22 08:58N 53°45' E 004°55'918.6
2017-Apr-22 08:30N 53°37' E 004°50'918.3
2017-Apr-22 08:00N 53°28' E 004°44'816.5
2017-Apr-22 07:30N 53°21' E 004°38'918.3
2017-Apr-22 06:59N 53°12' E 004°32'918.6
2017-Apr-22 06:29N 53°04' E 004°24'918.9
2017-Apr-22 06:00N 52°56' E 004°17'918.8
2017-Apr-22 05:30N 52°48' E 004°09'1019.1
2017-Apr-22 05:00N 52°41' E 003°59'1019.2
2017-Apr-22 04:30N 52°34' E 003°48'1019.3
2017-Apr-22 04:00N 52°26' E 003°38'1019.5
2017-Apr-22 03:30N 52°18' E 003°28'1020.3
2017-Apr-22 03:00N 52°08' E 003°26'1020.6
2017-Apr-22 02:29N 51°58' E 003°23'1020.1
2017-Apr-22 02:00N 51°49' E 003°17'1020.6
2017-Apr-22 01:30N 51°39' E 003°11'1020.3
2017-Apr-22 01:00N 51°30' E 003°04'612.6
2017-Apr-22 00:30N 51°24' E 003°06'1020.5
2017-Apr-22 00:00N 51°25' E 003°23'918.0
2017-Apr-21 23:30N 51°26' E 003°37'611.6
2017-Apr-21 23:00N 51°22' E 003°44'815.4
2017-Apr-21 22:30N 51°23' E 003°56'4 8.0
2017-Apr-21 22:00N 51°23' E 004°03'713.1
2017-Apr-21 21:31N 51°22' E 004°13'611.0
2017-Apr-21 21:00N 51°18' E 004°18'2 4.2
2017-Apr-21 20:30N 51°16' E 004°17'0 0.0
2017-Apr-21 20:00N 51°16' E 004°17'2 3.5
2017-Apr-21 19:31N 51°15' E 004°14'0 0.0
2017-Apr-21 19:00N 51°15' E 004°14'0 0.0
2017-Apr-21 18:30N 51°15' E 004°14'0 0.0
2017-Apr-21 18:00N 51°15' E 004°14'0 0.0
2017-Apr-21 17:27N 51°15' E 004°14'0 0.0
2017-Apr-21 16:57N 51°15' E 004°14'0 0.0
2017-Apr-21 16:30N 51°15' E 004°14'0 0.0
2017-Apr-21 16:00N 51°15' E 004°14'0 0.0
2017-Apr-21 15:30N 51°15' E 004°14'0 0.0
2017-Apr-21 14:51N 51°15' E 004°14'0 0.0
2017-Apr-21 14:30N 51°15' E 004°14'0 0.0
2017-Apr-21 13:30N 51°15' E 004°14'0 0.0
2017-Apr-21 13:00N 51°15' E 004°14'0 0.0
2017-Apr-21 12:30N 51°15' E 004°14'0 0.0
2017-Apr-21 12:00N 51°15' E 004°14'0 0.0
2017-Apr-21 11:30N 51°15' E 004°14'0 0.0
2017-Apr-21 11:00N 51°15' E 004°14'0 0.0
2017-Apr-21 10:27N 51°15' E 004°14'0 0.0
2017-Apr-21 10:00N 51°15' E 004°14'0 0.0
2017-Apr-21 09:30N 51°15' E 004°14'0 0.0
2017-Apr-21 09:00N 51°15' E 004°14'0 0.0
2017-Apr-21 08:27N 51°15' E 004°14'0 0.0
2017-Apr-21 07:45N 51°15' E 004°14'0 0.0
2017-Apr-21 07:30N 51°15' E 004°14'0 0.0
2017-Apr-21 06:54N 51°15' E 004°14'0 0.0
2017-Apr-21 06:27N 51°15' E 004°14'0 0.0
2017-Apr-21 06:00N 51°15' E 004°14'0 0.0
2017-Apr-21 05:24N 51°15' E 004°14'0 0.0
2017-Apr-21 05:00N 51°15' E 004°14'0 0.0
2017-Apr-21 04:30N 51°15' E 004°14'0 0.0
2017-Apr-21 03:54N 51°15' E 004°14'0 0.0
2017-Apr-21 03:30N 51°15' E 004°14'0 0.0
2017-Apr-21 03:00N 51°15' E 004°14'0 0.0
2017-Apr-21 02:30N 51°15' E 004°14'0 0.0
2017-Apr-21 02:00N 51°15' E 004°14'0 0.0
2017-Apr-21 01:30N 51°15' E 004°14'0 0.0
2017-Apr-21 01:00N 51°15' E 004°14'0 0.0
2017-Apr-21 00:30N 51°15' E 004°14'0 0.0
2017-Apr-20 23:57N 51°15' E 004°14'0 0.0
2017-Apr-20 23:27N 51°15' E 004°14'0 0.0
2017-Apr-20 22:57N 51°15' E 004°14'0 0.0
2017-Apr-20 22:27N 51°15' E 004°14'0 0.0
2017-Apr-20 22:00N 51°15' E 004°14'0 0.0
2017-Apr-20 21:30N 51°15' E 004°14'0 0.0
2017-Apr-20 21:00N 51°15' E 004°14'0 0.0
2017-Apr-20 20:30N 51°15' E 004°14'0 0.0
2017-Apr-20 20:00N 51°15' E 004°14'0 0.0
2017-Apr-20 19:27N 51°15' E 004°14'0 0.0
2017-Apr-20 18:57N 51°15' E 004°14'0 0.0
2017-Apr-20 18:30N 51°15' E 004°14'0 0.0
2017-Apr-20 18:00N 51°15' E 004°14'0 0.0
2017-Apr-20 17:30N 51°15' E 004°14'0 0.0
2017-Apr-20 17:00N 51°15' E 004°14'0 0.0
2017-Apr-20 16:24N 51°15' E 004°14'0 0.0
2017-Apr-20 16:00N 51°15' E 004°14'0 0.0
2017-Apr-20 15:30N 51°15' E 004°14'0 0.0
2017-Apr-20 14:57N 51°15' E 004°14'0 0.0
2017-Apr-20 14:00N 51°15' E 004°14'0 0.0
2017-Apr-20 13:30N 51°15' E 004°14'0 0.0
2017-Apr-20 13:00N 51°15' E 004°14'0 0.0
2017-Apr-20 12:21N 51°15' E 004°14'0 0.0
2017-Apr-20 12:00N 51°15' E 004°14'0 0.0
2017-Apr-20 11:30N 51°15' E 004°14'0 0.0
2017-Apr-20 11:00N 51°15' E 004°14'0 0.0
2017-Apr-20 10:27N 51°15' E 004°14'0 0.0
2017-Apr-20 10:00N 51°15' E 004°14'0 0.0
2017-Apr-20 09:30N 51°15' E 004°14'0 0.0
2017-Apr-20 08:57N 51°15' E 004°14'0 0.0
2017-Apr-20 08:30N 51°15' E 004°14'0 0.0
2017-Apr-20 08:00N 51°15' E 004°14'0 0.0
2017-Apr-20 07:30N 51°15' E 004°14'0 0.0
2017-Apr-20 07:00N 51°15' E 004°14'0 0.0
2017-Apr-20 06:30N 51°15' E 004°14'0 0.2
2017-Apr-20 06:00N 51°15' E 004°14'0 0.0
2017-Apr-20 05:27N 51°15' E 004°14'0 0.0
2017-Apr-20 05:00N 51°15' E 004°14'0 0.0
2017-Apr-20 04:30N 51°15' E 004°14'0 0.0
2017-Apr-20 03:57N 51°15' E 004°14'0 0.0
2017-Apr-20 03:30N 51°15' E 004°14'0 0.0
2017-Apr-20 03:00N 51°15' E 004°14'0 0.0
2017-Apr-20 02:30N 51°15' E 004°14'0 0.0
2017-Apr-20 02:00N 51°15' E 004°14'0 0.0
2017-Apr-20 01:30N 51°15' E 004°14'0 0.0
2017-Apr-20 01:00N 51°15' E 004°14'0 0.0
2017-Apr-20 00:30N 51°15' E 004°14'0 0.0
2017-Apr-19 23:57N 51°15' E 004°14'0 0.0
2017-Apr-19 23:30N 51°15' E 004°14'0 0.0
2017-Apr-19 22:57N 51°15' E 004°14'0 0.0
2017-Apr-19 22:30N 51°15' E 004°14'0 0.0
2017-Apr-19 21:57N 51°15' E 004°14'0 0.0
2017-Apr-19 21:24N 51°15' E 004°14'0 0.0
2017-Apr-19 20:57N 51°15' E 004°14'0 0.0
2017-Apr-19 20:30N 51°15' E 004°14'0 0.0
2017-Apr-19 19:57N 51°15' E 004°14'0 0.0
2017-Apr-19 19:30N 51°15' E 004°14'0 0.0
2017-Apr-19 19:00N 51°15' E 004°14'0 0.0
2017-Apr-19 18:30N 51°15' E 004°14'0 0.0
2017-Apr-19 18:00N 51°15' E 004°14'0 0.0
2017-Apr-19 17:30N 51°15' E 004°14'0 0.0
2017-Apr-19 16:57N 51°15' E 004°14'0 0.0
2017-Apr-19 16:27N 51°15' E 004°14'0 0.0
2017-Apr-19 15:57N 51°15' E 004°14'0 0.0
2017-Apr-19 15:30N 51°15' E 004°14'0 0.0
2017-Apr-19 15:00N 51°15' E 004°14'0 0.0
2017-Apr-19 14:30N 51°15' E 004°14'0 0.0
2017-Apr-19 13:30N 51°15' E 004°14'0 0.0
2017-Apr-19 13:00N 51°15' E 004°14'0 0.0
2017-Apr-19 12:30N 51°15' E 004°14'0 0.0
2017-Apr-19 11:57N 51°15' E 004°14'0 0.0
2017-Apr-19 11:30N 51°15' E 004°14'0 0.0
2017-Apr-19 11:00N 51°15' E 004°14'0 0.0
2017-Apr-19 10:30N 51°15' E 004°14'0 0.0
2017-Apr-19 10:00N 51°15' E 004°14'0 0.0
2017-Apr-19 09:30N 51°15' E 004°14'0 0.0
2017-Apr-19 09:00N 51°15' E 004°14'0 0.0
2017-Apr-19 08:30N 51°15' E 004°14'0 0.0
2017-Apr-19 07:57N 51°15' E 004°14'0 0.0
2017-Apr-19 07:30N 51°15' E 004°14'0 0.0
2017-Apr-19 06:57N 51°15' E 004°14'0 0.0
2017-Apr-19 06:30N 51°15' E 004°14'0 0.0
2017-Apr-19 06:00N 51°15' E 004°14'0 0.0
2017-Apr-19 05:27N 51°15' E 004°14'0 0.0
2017-Apr-19 04:57N 51°15' E 004°14'0 0.0
2017-Apr-19 04:30N 51°15' E 004°14'0 0.0
2017-Apr-19 04:00N 51°15' E 004°14'0 0.0
2017-Apr-19 03:27N 51°15' E 004°14'0 0.0
2017-Apr-19 03:00N 51°15' E 004°14'0 0.0
2017-Apr-19 02:30N 51°15' E 004°14'0 0.0
2017-Apr-19 02:00N 51°15' E 004°14'0 0.0
2017-Apr-19 01:30N 51°15' E 004°14'0 0.0
2017-Apr-19 01:00N 51°15' E 004°14'0 0.0
2017-Apr-19 00:30N 51°15' E 004°14'0 0.0
2017-Apr-18 23:57N 51°15' E 004°14'0 0.0
2017-Apr-18 23:30N 51°15' E 004°14'0 0.0
2017-Apr-18 23:00N 51°15' E 004°14'0 0.0
2017-Apr-18 22:27N 51°15' E 004°14'0 0.0
2017-Apr-18 22:00N 51°15' E 004°14'0 0.0
2017-Apr-18 21:30N 51°15' E 004°14'0 0.0
2017-Apr-18 21:00N 51°15' E 004°14'0 0.0
2017-Apr-18 20:30N 51°15' E 004°14'0 0.0
2017-Apr-18 20:00N 51°15' E 004°14'0 0.0
2017-Apr-18 19:30N 51°15' E 004°14'0 0.0
2017-Apr-18 19:00N 51°15' E 004°14'0 0.1
2017-Apr-18 18:27N 51°15' E 004°14'0 0.0
2017-Apr-18 18:00N 51°15' E 004°14'0 0.0
2017-Apr-18 17:30N 51°15' E 004°14'0 0.0
2017-Apr-18 16:57N 51°15' E 004°14'0 0.0
2017-Apr-18 16:30N 51°15' E 004°14'0 0.0
2017-Apr-18 16:00N 51°15' E 004°14'0 0.0
2017-Apr-18 15:30N 51°15' E 004°14'0 0.0
2017-Apr-18 15:00N 51°15' E 004°14'0 0.0
2017-Apr-18 14:30N 51°15' E 004°14'0 0.0
2017-Apr-18 13:30N 51°15' E 004°14'0 0.0
2017-Apr-18 13:00N 51°15' E 004°14'0 0.0
2017-Apr-18 12:30N 51°15' E 004°14'0 0.0
2017-Apr-18 12:00N 51°15' E 004°14'0 0.0
2017-Apr-18 11:30N 51°15' E 004°14'0 0.0
2017-Apr-18 11:00N 51°15' E 004°14'0 0.2
2017-Apr-18 10:31N 51°15' E 004°14'2 3.3
2017-Apr-18 10:01N 51°16' E 004°16'0 0.3
2017-Apr-18 09:30N 51°16' E 004°17'1 2.3
2017-Apr-18 09:00N 51°16' E 004°18'3 6.1
2017-Apr-18 08:30N 51°19' E 004°16'611.2
2017-Apr-18 07:59N 51°24' E 004°11'611.1
2017-Apr-18 07:29N 51°25' E 004°02'710.2
2017-Apr-18 06:49N 51°21' E 003°53'413.5
2017-Apr-18 06:30N 51°22' E 003°46'714.1
2017-Apr-18 06:00N 51°26' E 003°38'510.7
2017-Apr-18 05:30N 51°25' E 003°29'815.9
2017-Apr-18 05:00N 51°24' E 003°17'816.6
2017-Apr-18 04:30N 51°24' E 003°03'611.1
2017-Apr-18 04:00N 51°30' E 003°04'815.1
2017-Apr-18 03:30N 51°36' E 003°10'917.2
2017-Apr-18 02:59N 51°45' E 003°13'43518.1
2017-Apr-17 03:01N 57°45' E 010°16'017.8
2017-Apr-17 03:00N 57°45' E 010°17'817.1
2017-Apr-17 02:30N 57°46' E 010°32'917.2
2017-Apr-17 02:00N 57°46' E 010°49'918.3
2017-Apr-17 01:29N 57°40' E 011°02'918.5
2017-Apr-17 01:00N 57°34' E 011°14'918.7
2017-Apr-17 00:30N 57°28' E 011°27'918.5
2017-Apr-17 00:01N 57°19' E 011°32'918.4
2017-Apr-16 23:31N 57°11' E 011°38'11717.2
2017-Apr-16 16:44N 55°15' E 011°05'418.8
2017-Apr-16 16:30N 55°11' E 011°04'1121.1
2017-Apr-16 16:01N 55°01' E 011°02'918.8
2017-Apr-16 15:31N 54°53' E 010°53'918.6
2017-Apr-16 15:00N 54°44' E 010°53'1918.9
2017-Apr-16 14:00N 54°33' E 011°21'1020.1
2017-Apr-16 13:30N 54°29' E 011°36'1020.3
2017-Apr-16 13:01N 54°26' E 011°53'1019.5
2017-Apr-16 12:30N 54°26' E 012°09'815.1
2017-Apr-16 12:00N 54°33' E 012°15'5718.8
2017-Apr-16 08:57N 54°59' E 013°43'920.2
2017-Apr-16 08:30N 55°03' E 013°58'1019.7
2017-Apr-16 08:00N 55°09' E 014°10'1020.6
2017-Apr-16 07:30N 55°17' E 014°22'1020.4
2017-Apr-16 07:01N 55°24' E 014°34'1020.3
2017-Apr-16 06:31N 55°30' E 014°49'1020.2
2017-Apr-16 06:01N 55°35' E 015°05'35019.9
2017-Apr-15 12:24N 59°39' E 022°55'717.3
2017-Apr-15 12:00N 59°44' E 023°04'  

Dump ship's entire track history